This is the latest recevied weather packets stored in our database for station/object K9JWM. If no packets are shown the sender has not sent any weather packets the latest 10 day(s).
| Time | Temp. | Humidity | Pressure | Rain* | Wind** | Luminosity | Snow |
|---|---|---|---|---|---|---|---|
| 1777493394 | 6.11° C | 53% | 1016.8 hPa | 0 mm | - | - | - |
| 1777492494 | 6.67° C | 52% | 1016.8 hPa | 0 mm | - | - | - |
| 1777491593 | 6.11° C | 52% | 1016.8 hPa | 0 mm | - | - | - |
| 1777490693 | 7.22° C | 51% | 1016.4 hPa | 0 mm | - | - | - |
| 1777489794 | 6.67° C | 49% | 1016.3 hPa | 0 mm | - | - | - |
| 1777488893 | 6.67° C | 51% | 1016.3 hPa | 0 mm | - | - | - |
| 1777487993 | 7.22° C | 47% | 1016 hPa | 0 mm | - | - | - |
| 1777487094 | 7.22° C | 45% | 1016 hPa | 0 mm | - | - | - |
| 1777486194 | 7.22° C | 45% | 1015.9 hPa | 0 mm | - | - | - |
| 1777485293 | 7.22° C | 48% | 1016.1 hPa | 0 mm | - | - | - |
| 1777484394 | 6.67° C | 46% | 1016 hPa | 0 mm | - | - | - |
| 1777483494 | 6.67° C | 50% | 1016.1 hPa | 0 mm | - | - | - |
| 1777482593 | 6.67° C | 49% | 1016.2 hPa | 0 mm | - | - | - |
| 1777481694 | 6.67° C | 50% | 1016.2 hPa | 0 mm | - | - | - |
| 1777480793 | 6.11° C | 52% | 1016.1 hPa | 0 mm | - | - | - |
| 1777479895 | 6.67° C | 52% | 1016.2 hPa | 0 mm | - | - | - |
| 1777478993 | 6.67° C | 55% | 1016.3 hPa | 0 mm | - | - | - |
| 1777478093 | 6.11° C | 59% | 1016.4 hPa | 0 mm | - | - | - |
| 1777477193 | 5.56° C | 64% | 1016.4 hPa | 0 mm | - | - | - |
| 1777476294 | 5.56° C | 66% | 1016.4 hPa | 0 mm | - | - | - |
| 1777475393 | 6.11° C | 68% | 1016.4 hPa | 0 mm | - | - | - |
| 1777474493 | 5.56° C | 65% | 1016.4 hPa | 0 mm | - | - | - |
| 1777473594 | 5.56° C | 70% | 1016.5 hPa | 0 mm | - | - | - |
| 1777472693 | 5° C | 75% | 1016.7 hPa | 0 mm | - | - | - |
| 1777471795 | 5° C | 76% | 1016.8 hPa | 0 mm | - | - | - |
* Rain latest hour (hover to see other rain measurements)
** Current wind speed in m/s (hover to see current wind gust speed)